Levelroad, Alabama
Current Conditions -  °F | °C
As of 8:35 AM on Thursday 27 Nov 2014 (Local Time) from KLGC Reporting Station
Clear Clear  
Wind Chill:   Ceiling: Unl
Heat Index:   Visibility: 10mi
Dew Point:   Wind: 12mph
Humidity: 60%   Direction: 320°NW
Pressure: 30.29"   Gusts: 16mph
Location:  33.1661°N, 85.5111°W
Report Text: KLGC 271435Z AUTO 32010G14KT 10SM CLR 09/02 A3029 RMK AO2 T00890016
Loading
Personal Weather Stations






























Interactive Weather Map New forecast layout! Learn more

10-Day Weather Forecast

Advertisements
Track Severe Weather on mobile